sensor_id;sensor_type;location;lat;lon;timestamp;P1;durP1;ratioP1;P2;durP2;ratioP2
85734;SDS011;76179;42.316;22.856;2024-02-21T00:00:46;27.13;;;17.75;;
85734;SDS011;76179;42.316;22.856;2024-02-21T00:03:12;23.60;;;14.45;;
85734;SDS011;76179;42.316;22.856;2024-02-21T00:05:38;25.98;;;17.27;;
85734;SDS011;76179;42.316;22.856;2024-02-21T00:08:03;25.65;;;18.35;;
85734;SDS011;76179;42.316;22.856;2024-02-21T00:10:29;25.38;;;18.73;;
85734;SDS011;76179;42.316;22.856;2024-02-21T00:12:56;21.75;;;15.48;;
85734;SDS011;76179;42.316;22.856;2024-02-21T00:15:22;22.98;;;15.25;;
85734;SDS011;76179;42.316;22.856;2024-02-21T00:17:47;23.90;;;18.45;;
85734;SDS011;76179;42.316;22.856;2024-02-21T00:20:13;25.92;;;17.40;;
85734;SDS011;76179;42.316;22.856;2024-02-21T00:22:39;23.98;;;17.80;;
85734;SDS011;76179;42.316;22.856;2024-02-21T00:25:04;25.33;;;16.77;;
85734;SDS011;76179;42.316;22.856;2024-02-21T00:27:33;23.50;;;16.85;;
85734;SDS011;76179;42.316;22.856;2024-02-21T00:29:58;24.13;;;17.98;;
85734;SDS011;76179;42.316;22.856;2024-02-21T00:32:24;23.65;;;15.90;;
85734;SDS011;76179;42.316;22.856;2024-02-21T00:34:49;26.35;;;19.80;;
85734;SDS011;76179;42.316;22.856;2024-02-21T00:37:14;25.00;;;14.02;;
85734;SDS011;76179;42.316;22.856;2024-02-21T00:39:40;29.15;;;18.48;;
85734;SDS011;76179;42.316;22.856;2024-02-21T00:42:07;23.35;;;17.73;;
85734;SDS011;76179;42.316;22.856;2024-02-21T00:44:33;22.42;;;15.27;;
85734;SDS011;76179;42.316;22.856;2024-02-21T00:46:58;23.63;;;16.42;;
85734;SDS011;76179;42.316;22.856;2024-02-21T00:49:24;22.98;;;16.33;;
85734;SDS011;76179;42.316;22.856;2024-02-21T00:51:49;23.65;;;16.88;;
85734;SDS011;76179;42.316;22.856;2024-02-21T00:54:17;22.83;;;16.20;;
85734;SDS011;76179;42.316;22.856;2024-02-21T00:56:43;22.10;;;15.48;;
85734;SDS011;76179;42.316;22.856;2024-02-21T00:59:08;21.05;;;16.17;;
85734;SDS011;76179;42.316;22.856;2024-02-21T01:01:33;22.33;;;15.90;;
85734;SDS011;76179;42.316;22.856;2024-02-21T01:03:59;24.15;;;17.90;;
85734;SDS011;76179;42.316;22.856;2024-02-21T01:06:25;22.00;;;15.93;;
85734;SDS011;76179;42.316;22.856;2024-02-21T01:08:50;22.52;;;16.33;;
85734;SDS011;76179;42.316;22.856;2024-02-21T01:11:15;20.55;;;13.48;;
85734;SDS011;76179;42.316;22.856;2024-02-21T01:13:41;22.45;;;15.05;;
85734;SDS011;76179;42.316;22.856;2024-02-21T01:16:07;22.73;;;17.00;;
85734;SDS011;76179;42.316;22.856;2024-02-21T01:18:41;21.85;;;16.70;;
85734;SDS011;76179;42.316;22.856;2024-02-21T01:21:07;19.70;;;14.15;;
85734;SDS011;76179;42.316;22.856;2024-02-21T01:23:34;26.23;;;16.92;;
85734;SDS011;76179;42.316;22.856;2024-02-21T01:26:00;26.27;;;18.63;;
85734;SDS011;76179;42.316;22.856;2024-02-21T01:28:25;26.42;;;17.48;;
85734;SDS011;76179;42.316;22.856;2024-02-21T01:30:50;22.38;;;15.57;;
85734;SDS011;76179;42.316;22.856;2024-02-21T01:33:16;22.08;;;16.40;;
85734;SDS011;76179;42.316;22.856;2024-02-21T01:35:42;23.90;;;16.65;;
85734;SDS011;76179;42.316;22.856;2024-02-21T01:38:07;21.52;;;14.50;;
85734;SDS011;76179;42.316;22.856;2024-02-21T01:40:33;21.25;;;15.15;;
85734;SDS011;76179;42.316;22.856;2024-02-21T01:42:58;19.20;;;13.18;;
85734;SDS011;76179;42.316;22.856;2024-02-21T01:45:24;18.85;;;14.82;;
85734;SDS011;76179;42.316;22.856;2024-02-21T01:47:49;17.17;;;13.55;;
85734;SDS011;76179;42.316;22.856;2024-02-21T01:50:15;17.02;;;13.05;;
85734;SDS011;76179;42.316;22.856;2024-02-21T01:52:42;20.85;;;15.30;;
85734;SDS011;76179;42.316;22.856;2024-02-21T01:55:11;20.08;;;14.98;;
85734;SDS011;76179;42.316;22.856;2024-02-21T01:57:39;19.25;;;14.43;;
85734;SDS011;76179;42.316;22.856;2024-02-21T02:00:05;20.55;;;15.73;;
85734;SDS011;76179;42.316;22.856;2024-02-21T02:02:32;17.98;;;13.15;;
85734;SDS011;76179;42.316;22.856;2024-02-21T02:04:57;19.58;;;13.68;;
85734;SDS011;76179;42.316;22.856;2024-02-21T02:07:24;18.17;;;12.38;;
85734;SDS011;76179;42.316;22.856;2024-02-21T02:09:50;19.77;;;14.52;;
85734;SDS011;76179;42.316;22.856;2024-02-21T02:12:18;20.27;;;14.05;;
85734;SDS011;76179;42.316;22.856;2024-02-21T02:14:46;18.00;;;14.18;;
85734;SDS011;76179;42.316;22.856;2024-02-21T02:17:11;15.90;;;13.32;;
85734;SDS011;76179;42.316;22.856;2024-02-21T02:19:37;19.73;;;13.25;;
85734;SDS011;76179;42.316;22.856;2024-02-21T02:22:06;19.50;;;13.55;;
85734;SDS011;76179;42.316;22.856;2024-02-21T02:24:38;18.50;;;14.77;;
85734;SDS011;76179;42.316;22.856;2024-02-21T02:27:04;18.85;;;12.98;;
85734;SDS011;76179;42.316;22.856;2024-02-21T02:29:31;21.05;;;14.60;;
85734;SDS011;76179;42.316;22.856;2024-02-21T02:31:57;19.02;;;14.55;;
85734;SDS011;76179;42.316;22.856;2024-02-21T02:34:23;17.85;;;13.90;;
85734;SDS011;76179;42.316;22.856;2024-02-21T02:36:49;19.23;;;14.10;;
85734;SDS011;76179;42.316;22.856;2024-02-21T02:39:14;17.20;;;13.02;;
85734;SDS011;76179;42.316;22.856;2024-02-21T02:41:40;15.80;;;12.32;;
85734;SDS011;76179;42.316;22.856;2024-02-21T02:44:05;20.90;;;14.23;;
85734;SDS011;76179;42.316;22.856;2024-02-21T02:46:30;18.25;;;13.27;;
85734;SDS011;76179;42.316;22.856;2024-02-21T02:48:59;17.73;;;13.50;;
85734;SDS011;76179;42.316;22.856;2024-02-21T02:51:24;17.60;;;13.80;;
85734;SDS011;76179;42.316;22.856;2024-02-21T02:53:50;16.17;;;11.65;;
85734;SDS011;76179;42.316;22.856;2024-02-21T02:56:15;18.23;;;12.93;;
85734;SDS011;76179;42.316;22.856;2024-02-21T02:58:41;19.05;;;15.20;;
85734;SDS011;76179;42.316;22.856;2024-02-21T03:01:08;18.77;;;13.85;;
85734;SDS011;76179;42.316;22.856;2024-02-21T03:03:33;17.88;;;12.20;;
85734;SDS011;76179;42.316;22.856;2024-02-21T03:05:59;18.77;;;14.52;;
85734;SDS011;76179;42.316;22.856;2024-02-21T03:08:24;15.70;;;12.30;;
85734;SDS011;76179;42.316;22.856;2024-02-21T03:10:50;16.88;;;12.07;;
85734;SDS011;76179;42.316;22.856;2024-02-21T03:13:15;19.17;;;13.65;;
85734;SDS011;76179;42.316;22.856;2024-02-21T03:15:40;19.35;;;13.23;;
85734;SDS011;76179;42.316;22.856;2024-02-21T03:18:06;18.58;;;13.55;;
85734;SDS011;76179;42.316;22.856;2024-02-21T03:20:31;18.52;;;13.20;;
85734;SDS011;76179;42.316;22.856;2024-02-21T03:22:57;16.52;;;13.85;;
85734;SDS011;76179;42.316;22.856;2024-02-21T03:25:22;19.13;;;15.20;;
85734;SDS011;76179;42.316;22.856;2024-02-21T03:27:48;17.58;;;12.25;;
85734;SDS011;76179;42.316;22.856;2024-02-21T03:30:13;16.02;;;12.15;;
85734;SDS011;76179;42.316;22.856;2024-02-21T03:32:39;17.17;;;12.95;;
85734;SDS011;76179;42.316;22.856;2024-02-21T03:35:05;16.52;;;12.25;;
85734;SDS011;76179;42.316;22.856;2024-02-21T03:37:30;18.98;;;13.10;;
85734;SDS011;76179;42.316;22.856;2024-02-21T03:39:56;15.90;;;9.13;;
85734;SDS011;76179;42.316;22.856;2024-02-21T03:42:21;16.50;;;12.65;;
85734;SDS011;76179;42.316;22.856;2024-02-21T03:44:46;17.17;;;9.70;;
85734;SDS011;76179;42.316;22.856;2024-02-21T03:47:12;19.17;;;14.43;;
85734;SDS011;76179;42.316;22.856;2024-02-21T03:49:37;15.75;;;11.13;;
85734;SDS011;76179;42.316;22.856;2024-02-21T03:52:03;16.98;;;8.77;;
85734;SDS011;76179;42.316;22.856;2024-02-21T03:54:29;19.13;;;13.25;;
85734;SDS011;76179;42.316;22.856;2024-02-21T03:56:54;17.55;;;13.43;;
85734;SDS011;76179;42.316;22.856;2024-02-21T03:59:21;18.38;;;13.45;;
85734;SDS011;76179;42.316;22.856;2024-02-21T04:01:50;17.13;;;13.52;;
85734;SDS011;76179;42.316;22.856;2024-02-21T04:06:48;19.43;;;14.00;;
85734;SDS011;76179;42.316;22.856;2024-02-21T04:09:14;17.75;;;13.23;;
85734;SDS011;76179;42.316;22.856;2024-02-21T04:11:41;17.92;;;12.82;;
85734;SDS011;76179;42.316;22.856;2024-02-21T04:14:07;17.50;;;9.98;;
85734;SDS011;76179;42.316;22.856;2024-02-21T04:16:32;17.13;;;13.82;;
85734;SDS011;76179;42.316;22.856;2024-02-21T04:18:58;18.98;;;14.02;;
85734;SDS011;76179;42.316;22.856;2024-02-21T04:21:23;17.98;;;13.07;;
85734;SDS011;76179;42.316;22.856;2024-02-21T04:23:49;18.42;;;13.63;;
85734;SDS011;76179;42.316;22.856;2024-02-21T04:26:15;19.45;;;14.90;;
85734;SDS011;76179;42.316;22.856;2024-02-21T04:28:40;16.10;;;9.20;;
85734;SDS011;76179;42.316;22.856;2024-02-21T04:31:06;20.70;;;14.48;;
85734;SDS011;76179;42.316;22.856;2024-02-21T04:33:31;18.30;;;13.75;;
85734;SDS011;76179;42.316;22.856;2024-02-21T04:35:57;20.60;;;15.13;;
85734;SDS011;76179;42.316;22.856;2024-02-21T04:38:23;21.88;;;17.23;;
85734;SDS011;76179;42.316;22.856;2024-02-21T04:40:49;19.35;;;13.70;;
85734;SDS011;76179;42.316;22.856;2024-02-21T04:43:14;19.80;;;14.32;;
85734;SDS011;76179;42.316;22.856;2024-02-21T04:45:40;29.25;;;19.65;;
85734;SDS011;76179;42.316;22.856;2024-02-21T04:48:05;23.05;;;15.65;;
85734;SDS011;76179;42.316;22.856;2024-02-21T04:50:30;21.30;;;15.90;;
85734;SDS011;76179;42.316;22.856;2024-02-21T04:52:56;21.35;;;15.75;;
85734;SDS011;76179;42.316;22.856;2024-02-21T04:55:21;18.38;;;14.07;;
85734;SDS011;76179;42.316;22.856;2024-02-21T04:57:47;22.13;;;16.13;;
85734;SDS011;76179;42.316;22.856;2024-02-21T05:00:12;21.95;;;16.35;;
85734;SDS011;76179;42.316;22.856;2024-02-21T05:02:38;20.63;;;15.50;;
85734;SDS011;76179;42.316;22.856;2024-02-21T05:05:03;20.17;;;14.98;;
85734;SDS011;76179;42.316;22.856;2024-02-21T05:07:29;26.50;;;11.85;;
85734;SDS011;76179;42.316;22.856;2024-02-21T05:09:54;23.95;;;14.43;;
85734;SDS011;76179;42.316;22.856;2024-02-21T05:12:20;20.00;;;14.25;;
85734;SDS011;76179;42.316;22.856;2024-02-21T05:14:45;21.95;;;15.10;;
85734;SDS011;76179;42.316;22.856;2024-02-21T05:17:10;27.15;;;15.60;;
85734;SDS011;76179;42.316;22.856;2024-02-21T05:19:36;22.40;;;16.42;;
85734;SDS011;76179;42.316;22.856;2024-02-21T05:22:01;24.90;;;15.85;;
85734;SDS011;76179;42.316;22.856;2024-02-21T05:24:26;26.08;;;18.77;;
85734;SDS011;76179;42.316;22.856;2024-02-21T05:26:53;23.58;;;16.65;;
85734;SDS011;76179;42.316;22.856;2024-02-21T05:29:18;22.08;;;14.73;;
85734;SDS011;76179;42.316;22.856;2024-02-21T05:34:15;19.08;;;15.32;;
85734;SDS011;76179;42.316;22.856;2024-02-21T05:36:41;18.17;;;10.60;;
85734;SDS011;76179;42.316;22.856;2024-02-21T05:39:06;21.90;;;13.80;;
85734;SDS011;76179;42.316;22.856;2024-02-21T05:41:32;17.77;;;13.90;;
85734;SDS011;76179;42.316;22.856;2024-02-21T05:43:57;21.58;;;16.33;;
85734;SDS011;76179;42.316;22.856;2024-02-21T05:46:22;18.85;;;15.20;;
85734;SDS011;76179;42.316;22.856;2024-02-21T05:48:48;20.85;;;16.35;;
85734;SDS011;76179;42.316;22.856;2024-02-21T05:51:13;19.88;;;15.68;;
85734;SDS011;76179;42.316;22.856;2024-02-21T05:53:38;21.58;;;15.38;;
85734;SDS011;76179;42.316;22.856;2024-02-21T05:56:09;19.52;;;14.48;;
85734;SDS011;76179;42.316;22.856;2024-02-21T05:58:36;19.90;;;15.25;;
85734;SDS011;76179;42.316;22.856;2024-02-21T06:01:01;21.25;;;14.95;;
85734;SDS011;76179;42.316;22.856;2024-02-21T06:03:28;23.55;;;15.82;;
85734;SDS011;76179;42.316;22.856;2024-02-21T06:05:54;23.75;;;15.23;;
85734;SDS011;76179;42.316;22.856;2024-02-21T06:08:20;19.02;;;15.00;;
85734;SDS011;76179;42.316;22.856;2024-02-21T06:10:45;23.38;;;16.35;;
85734;SDS011;76179;42.316;22.856;2024-02-21T06:13:11;21.52;;;16.35;;
85734;SDS011;76179;42.316;22.856;2024-02-21T06:15:36;24.98;;;19.55;;
85734;SDS011;76179;42.316;22.856;2024-02-21T06:18:01;21.02;;;14.80;;
85734;SDS011;76179;42.316;22.856;2024-02-21T06:20:27;23.33;;;16.02;;
85734;SDS011;76179;42.316;22.856;2024-02-21T06:22:53;23.20;;;16.55;;
85734;SDS011;76179;42.316;22.856;2024-02-21T06:25:21;24.85;;;16.63;;
85734;SDS011;76179;42.316;22.856;2024-02-21T06:27:46;23.08;;;16.05;;
85734;SDS011;76179;42.316;22.856;2024-02-21T06:30:12;25.77;;;16.98;;
85734;SDS011;76179;42.316;22.856;2024-02-21T06:32:38;23.98;;;16.40;;
85734;SDS011;76179;42.316;22.856;2024-02-21T06:35:03;21.23;;;15.65;;
85734;SDS011;76179;42.316;22.856;2024-02-21T06:37:30;23.02;;;15.75;;
85734;SDS011;76179;42.316;22.856;2024-02-21T06:39:58;21.70;;;15.02;;
85734;SDS011;76179;42.316;22.856;2024-02-21T06:42:26;21.25;;;16.00;;
85734;SDS011;76179;42.316;22.856;2024-02-21T06:44:51;46.88;;;28.70;;
85734;SDS011;76179;42.316;22.856;2024-02-21T06:47:17;27.10;;;20.33;;
85734;SDS011;76179;42.316;22.856;2024-02-21T06:49:42;23.13;;;17.08;;
85734;SDS011;76179;42.316;22.856;2024-02-21T06:52:08;25.80;;;19.80;;
85734;SDS011;76179;42.316;22.856;2024-02-21T06:54:33;26.45;;;19.55;;
85734;SDS011;76179;42.316;22.856;2024-02-21T06:56:58;21.85;;;16.45;;
85734;SDS011;76179;42.316;22.856;2024-02-21T06:59:24;23.42;;;17.08;;
85734;SDS011;76179;42.316;22.856;2024-02-21T07:01:53;24.48;;;17.13;;
85734;SDS011;76179;42.316;22.856;2024-02-21T07:04:19;19.35;;;12.98;;
85734;SDS011;76179;42.316;22.856;2024-02-21T07:06:45;28.05;;;19.83;;
85734;SDS011;76179;42.316;22.856;2024-02-21T07:09:10;21.55;;;15.95;;
85734;SDS011;76179;42.316;22.856;2024-02-21T07:11:36;20.48;;;14.38;;
85734;SDS011;76179;42.316;22.856;2024-02-21T07:14:01;20.65;;;14.77;;
85734;SDS011;76179;42.316;22.856;2024-02-21T07:16:26;21.85;;;16.88;;
85734;SDS011;76179;42.316;22.856;2024-02-21T07:18:53;24.15;;;14.98;;
85734;SDS011;76179;42.316;22.856;2024-02-21T07:21:20;20.42;;;14.82;;
85734;SDS011;76179;42.316;22.856;2024-02-21T07:23:45;21.85;;;15.23;;
85734;SDS011;76179;42.316;22.856;2024-02-21T07:26:10;18.02;;;14.15;;
85734;SDS011;76179;42.316;22.856;2024-02-21T07:28:36;18.42;;;14.25;;
85734;SDS011;76179;42.316;22.856;2024-02-21T07:31:01;18.08;;;13.65;;
85734;SDS011;76179;42.316;22.856;2024-02-21T07:33:27;20.60;;;15.32;;
85734;SDS011;76179;42.316;22.856;2024-02-21T07:35:53;21.95;;;15.02;;
85734;SDS011;76179;42.316;22.856;2024-02-21T07:38:18;24.70;;;16.73;;
85734;SDS011;76179;42.316;22.856;2024-02-21T07:40:45;19.08;;;12.88;;
85734;SDS011;76179;42.316;22.856;2024-02-21T07:43:10;20.42;;;15.15;;
85734;SDS011;76179;42.316;22.856;2024-02-21T07:45:35;22.55;;;18.52;;
85734;SDS011;76179;42.316;22.856;2024-02-21T07:48:01;20.70;;;14.45;;
85734;SDS011;76179;42.316;22.856;2024-02-21T07:50:27;22.55;;;14.95;;
85734;SDS011;76179;42.316;22.856;2024-02-21T07:52:52;20.67;;;16.33;;
85734;SDS011;76179;42.316;22.856;2024-02-21T07:55:18;24.75;;;18.88;;
85734;SDS011;76179;42.316;22.856;2024-02-21T07:57:43;21.90;;;14.88;;
85734;SDS011;76179;42.316;22.856;2024-02-21T08:00:09;24.83;;;18.30;;
85734;SDS011;76179;42.316;22.856;2024-02-21T08:02:40;24.67;;;17.45;;
85734;SDS011;76179;42.316;22.856;2024-02-21T08:05:05;21.45;;;17.05;;
85734;SDS011;76179;42.316;22.856;2024-02-21T08:07:31;20.65;;;14.70;;
85734;SDS011;76179;42.316;22.856;2024-02-21T08:09:56;19.17;;;17.13;;
85734;SDS011;76179;42.316;22.856;2024-02-21T08:12:21;17.48;;;13.63;;
85734;SDS011;76179;42.316;22.856;2024-02-21T08:14:47;17.42;;;14.65;;
85734;SDS011;76179;42.316;22.856;2024-02-21T08:17:12;18.40;;;9.80;;
85734;SDS011;76179;42.316;22.856;2024-02-21T08:19:37;17.70;;;13.27;;
85734;SDS011;76179;42.316;22.856;2024-02-21T08:22:03;15.68;;;11.93;;
85734;SDS011;76179;42.316;22.856;2024-02-21T08:24:28;15.00;;;12.00;;
85734;SDS011;76179;42.316;22.856;2024-02-21T08:26:54;19.30;;;14.60;;
85734;SDS011;76179;42.316;22.856;2024-02-21T08:29:19;17.60;;;12.70;;
85734;SDS011;76179;42.316;22.856;2024-02-21T08:31:44;15.68;;;12.23;;
85734;SDS011;76179;42.316;22.856;2024-02-21T08:34:10;16.05;;;12.35;;
85734;SDS011;76179;42.316;22.856;2024-02-21T08:36:35;15.18;;;10.75;;
85734;SDS011;76179;42.316;22.856;2024-02-21T08:39:02;14.55;;;11.30;;
85734;SDS011;76179;42.316;22.856;2024-02-21T08:41:30;13.55;;;11.63;;
85734;SDS011;76179;42.316;22.856;2024-02-21T08:43:56;14.50;;;9.05;;
85734;SDS011;76179;42.316;22.856;2024-02-21T08:46:22;15.23;;;12.50;;
85734;SDS011;76179;42.316;22.856;2024-02-21T08:48:49;13.95;;;11.55;;
85734;SDS011;76179;42.316;22.856;2024-02-21T08:51:18;12.70;;;10.15;;
85734;SDS011;76179;42.316;22.856;2024-02-21T08:53:44;12.60;;;9.85;;
85734;SDS011;76179;42.316;22.856;2024-02-21T08:56:10;13.38;;;10.73;;
85734;SDS011;76179;42.316;22.856;2024-02-21T08:58:41;15.48;;;13.18;;
85734;SDS011;76179;42.316;22.856;2024-02-21T09:01:07;13.80;;;11.65;;
85734;SDS011;76179;42.316;22.856;2024-02-21T09:03:36;12.95;;;9.80;;
85734;SDS011;76179;42.316;22.856;2024-02-21T09:06:02;14.32;;;11.07;;
85734;SDS011;76179;42.316;22.856;2024-02-21T09:08:29;13.65;;;12.23;;
85734;SDS011;76179;42.316;22.856;2024-02-21T09:10:55;12.18;;;10.07;;
85734;SDS011;76179;42.316;22.856;2024-02-21T09:13:20;12.38;;;8.32;;
85734;SDS011;76179;42.316;22.856;2024-02-21T09:15:46;13.30;;;9.75;;
85734;SDS011;76179;42.316;22.856;2024-02-21T09:18:12;12.57;;;8.90;;
85734;SDS011;76179;42.316;22.856;2024-02-21T09:20:38;18.20;;;14.63;;
85734;SDS011;76179;42.316;22.856;2024-02-21T09:23:03;13.25;;;10.15;;
85734;SDS011;76179;42.316;22.856;2024-02-21T09:25:28;11.95;;;9.32;;
85734;SDS011;76179;42.316;22.856;2024-02-21T09:27:54;11.95;;;10.45;;
85734;SDS011;76179;42.316;22.856;2024-02-21T09:30:20;13.25;;;11.50;;
85734;SDS011;76179;42.316;22.856;2024-02-21T09:32:46;10.30;;;8.25;;
85734;SDS011;76179;42.316;22.856;2024-02-21T09:35:12;12.02;;;9.40;;
85734;SDS011;76179;42.316;22.856;2024-02-21T09:37:38;11.75;;;8.63;;
85734;SDS011;76179;42.316;22.856;2024-02-21T09:40:06;13.88;;;10.18;;
85734;SDS011;76179;42.316;22.856;2024-02-21T09:42:37;13.63;;;10.75;;
85734;SDS011;76179;42.316;22.856;2024-02-21T09:45:07;14.05;;;10.57;;
85734;SDS011;76179;42.316;22.856;2024-02-21T09:47:39;16.63;;;14.77;;
85734;SDS011;76179;42.316;22.856;2024-02-21T09:50:12;12.98;;;7.90;;
85734;SDS011;76179;42.316;22.856;2024-02-21T09:52:39;13.32;;;8.93;;
85734;SDS011;76179;42.316;22.856;2024-02-21T09:55:06;12.02;;;8.88;;
85734;SDS011;76179;42.316;22.856;2024-02-21T09:57:35;10.90;;;8.10;;
85734;SDS011;76179;42.316;22.856;2024-02-21T10:00:02;15.45;;;9.60;;
85734;SDS011;76179;42.316;22.856;2024-02-21T10:02:32;13.80;;;8.50;;
85734;SDS011;76179;42.316;22.856;2024-02-21T10:04:58;13.30;;;8.80;;
85734;SDS011;76179;42.316;22.856;2024-02-21T10:07:23;12.80;;;9.25;;
85734;SDS011;76179;42.316;22.856;2024-02-21T10:09:59;11.80;;;8.50;;
85734;SDS011;76179;42.316;22.856;2024-02-21T10:12:26;10.35;;;6.72;;
85734;SDS011;76179;42.316;22.856;2024-02-21T10:14:59;11.70;;;9.07;;
85734;SDS011;76179;42.316;22.856;2024-02-21T10:17:28;12.35;;;9.23;;
85734;SDS011;76179;42.316;22.856;2024-02-21T10:19:54;10.63;;;7.85;;
85734;SDS011;76179;42.316;22.856;2024-02-21T10:22:19;11.40;;;7.65;;
85734;SDS011;76179;42.316;22.856;2024-02-21T10:24:48;13.15;;;9.48;;
85734;SDS011;76179;42.316;22.856;2024-02-21T10:27:13;9.70;;;8.35;;
85734;SDS011;76179;42.316;22.856;2024-02-21T10:29:39;11.68;;;8.70;;
85734;SDS011;76179;42.316;22.856;2024-02-21T10:32:08;11.35;;;9.38;;
85734;SDS011;76179;42.316;22.856;2024-02-21T10:34:34;10.50;;;7.60;;
85734;SDS011;76179;42.316;22.856;2024-02-21T10:37:04;11.77;;;8.07;;
85734;SDS011;76179;42.316;22.856;2024-02-21T10:39:32;14.35;;;10.98;;
85734;SDS011;76179;42.316;22.856;2024-02-21T10:41:59;10.32;;;7.75;;
85734;SDS011;76179;42.316;22.856;2024-02-21T10:44:29;11.60;;;9.05;;
85734;SDS011;76179;42.316;22.856;2024-02-21T10:46:58;9.43;;;7.22;;
85734;SDS011;76179;42.316;22.856;2024-02-21T10:49:24;10.93;;;5.55;;
85734;SDS011;76179;42.316;22.856;2024-02-21T10:51:54;10.23;;;7.88;;
85734;SDS011;76179;42.316;22.856;2024-02-21T10:57:13;11.52;;;9.80;;
85734;SDS011;76179;42.316;22.856;2024-02-21T10:59:39;14.93;;;13.35;;
85734;SDS011;76179;42.316;22.856;2024-02-21T11:02:05;13.93;;;11.57;;
85734;SDS011;76179;42.316;22.856;2024-02-21T11:04:31;10.77;;;8.38;;
85734;SDS011;76179;42.316;22.856;2024-02-21T11:07:01;10.50;;;7.68;;
85734;SDS011;76179;42.316;22.856;2024-02-21T11:09:31;11.43;;;8.82;;
85734;SDS011;76179;42.316;22.856;2024-02-21T11:11:57;10.98;;;7.65;;
85734;SDS011;76179;42.316;22.856;2024-02-21T11:14:26;11.10;;;7.95;;
85734;SDS011;76179;42.316;22.856;2024-02-21T11:16:53;9.60;;;6.70;;
85734;SDS011;76179;42.316;22.856;2024-02-21T11:19:19;10.68;;;8.32;;
85734;SDS011;76179;42.316;22.856;2024-02-21T11:21:45;10.05;;;7.50;;
85734;SDS011;76179;42.316;22.856;2024-02-21T11:24:10;10.80;;;8.82;;
85734;SDS011;76179;42.316;22.856;2024-02-21T11:26:39;20.75;;;18.33;;
85734;SDS011;76179;42.316;22.856;2024-02-21T11:29:08;24.67;;;22.25;;
85734;SDS011;76179;42.316;22.856;2024-02-21T11:31:43;22.05;;;19.95;;
85734;SDS011;76179;42.316;22.856;2024-02-21T11:34:11;11.50;;;8.88;;
85734;SDS011;76179;42.316;22.856;2024-02-21T11:36:39;12.50;;;8.52;;
85734;SDS011;76179;42.316;22.856;2024-02-21T11:39:21;12.48;;;9.52;;
85734;SDS011;76179;42.316;22.856;2024-02-21T11:42:05;13.02;;;11.63;;
85734;SDS011;76179;42.316;22.856;2024-02-21T11:44:32;10.73;;;7.93;;
85734;SDS011;76179;42.316;22.856;2024-02-21T11:46:59;9.70;;;8.23;;
85734;SDS011;76179;42.316;22.856;2024-02-21T11:49:25;9.77;;;6.93;;
85734;SDS011;76179;42.316;22.856;2024-02-21T11:51:58;9.60;;;4.60;;
85734;SDS011;76179;42.316;22.856;2024-02-21T11:54:29;10.93;;;7.90;;
85734;SDS011;76179;42.316;22.856;2024-02-21T11:59:24;10.95;;;8.25;;
85734;SDS011;76179;42.316;22.856;2024-02-21T12:01:49;11.05;;;9.38;;
85734;SDS011;76179;42.316;22.856;2024-02-21T12:04:18;9.27;;;5.13;;
85734;SDS011;76179;42.316;22.856;2024-02-21T12:06:48;10.43;;;7.68;;
85734;SDS011;76179;42.316;22.856;2024-02-21T12:09:15;10.68;;;8.27;;
85734;SDS011;76179;42.316;22.856;2024-02-21T12:11:44;11.55;;;7.15;;
85734;SDS011;76179;42.316;22.856;2024-02-21T12:14:11;9.50;;;8.52;;
85734;SDS011;76179;42.316;22.856;2024-02-21T12:16:41;9.52;;;7.15;;
85734;SDS011;76179;42.316;22.856;2024-02-21T12:19:09;9.43;;;6.60;;
85734;SDS011;76179;42.316;22.856;2024-02-21T12:21:35;7.90;;;5.88;;
85734;SDS011;76179;42.316;22.856;2024-02-21T12:26:49;8.40;;;6.38;;
85734;SDS011;76179;42.316;22.856;2024-02-21T12:29:21;7.70;;;5.93;;
85734;SDS011;76179;42.316;22.856;2024-02-21T12:31:47;10.65;;;7.28;;
85734;SDS011;76179;42.316;22.856;2024-02-21T12:34:12;8.77;;;6.63;;
85734;SDS011;76179;42.316;22.856;2024-02-21T12:36:44;8.75;;;3.78;;
85734;SDS011;76179;42.316;22.856;2024-02-21T12:39:13;10.27;;;8.27;;
85734;SDS011;76179;42.316;22.856;2024-02-21T12:41:39;9.80;;;5.75;;
85734;SDS011;76179;42.316;22.856;2024-02-21T12:44:05;8.70;;;7.18;;
85734;SDS011;76179;42.316;22.856;2024-02-21T12:46:34;7.13;;;3.92;;
85734;SDS011;76179;42.316;22.856;2024-02-21T12:49:03;8.90;;;6.25;;
85734;SDS011;76179;42.316;22.856;2024-02-21T12:51:29;9.35;;;6.82;;
85734;SDS011;76179;42.316;22.856;2024-02-21T12:53:56;9.32;;;6.60;;
85734;SDS011;76179;42.316;22.856;2024-02-21T12:56:21;9.88;;;7.93;;
85734;SDS011;76179;42.316;22.856;2024-02-21T12:58:47;10.00;;;8.07;;
85734;SDS011;76179;42.316;22.856;2024-02-21T13:01:12;8.48;;;6.72;;
85734;SDS011;76179;42.316;22.856;2024-02-21T13:03:38;11.43;;;8.05;;
85734;SDS011;76179;42.316;22.856;2024-02-21T13:06:04;10.55;;;7.88;;
85734;SDS011;76179;42.316;22.856;2024-02-21T13:08:29;8.45;;;4.38;;
85734;SDS011;76179;42.316;22.856;2024-02-21T13:10:55;11.30;;;7.82;;
85734;SDS011;76179;42.316;22.856;2024-02-21T13:13:20;10.85;;;7.40;;
85734;SDS011;76179;42.316;22.856;2024-02-21T13:15:46;9.38;;;8.00;;
85734;SDS011;76179;42.316;22.856;2024-02-21T13:28:45;8.05;;;4.25;;
85734;SDS011;76179;42.316;22.856;2024-02-21T13:31:10;6.88;;;3.92;;
85734;SDS011;76179;42.316;22.856;2024-02-21T13:33:35;7.55;;;3.97;;
85734;SDS011;76179;42.316;22.856;2024-02-21T13:36:01;6.70;;;3.45;;
85734;SDS011;76179;42.316;22.856;2024-02-21T13:38:28;6.65;;;3.78;;
85734;SDS011;76179;42.316;22.856;2024-02-21T13:40:53;7.05;;;3.42;;
85734;SDS011;76179;42.316;22.856;2024-02-21T13:43:19;6.63;;;3.63;;
85734;SDS011;76179;42.316;22.856;2024-02-21T13:45:54;7.22;;;3.90;;
85734;SDS011;76179;42.316;22.856;2024-02-21T13:48:24;7.20;;;3.55;;
85734;SDS011;76179;42.316;22.856;2024-02-21T13:50:50;6.93;;;3.45;;
85734;SDS011;76179;42.316;22.856;2024-02-21T13:53:15;7.10;;;3.47;;
85734;SDS011;76179;42.316;22.856;2024-02-21T13:55:43;7.28;;;3.15;;
85734;SDS011;76179;42.316;22.856;2024-02-21T13:58:09;7.97;;;3.20;;
85734;SDS011;76179;42.316;22.856;2024-02-21T14:00:34;7.32;;;3.92;;
85734;SDS011;76179;42.316;22.856;2024-02-21T14:03:01;8.85;;;4.05;;
85734;SDS011;76179;42.316;22.856;2024-02-21T14:05:26;7.15;;;3.72;;
85734;SDS011;76179;42.316;22.856;2024-02-21T14:07:52;7.05;;;4.57;;
85734;SDS011;76179;42.316;22.856;2024-02-21T14:10:19;7.63;;;4.43;;
85734;SDS011;76179;42.316;22.856;2024-02-21T14:12:45;7.57;;;4.85;;
85734;SDS011;76179;42.316;22.856;2024-02-21T14:15:10;6.38;;;3.10;;
85734;SDS011;76179;42.316;22.856;2024-02-21T14:17:36;10.00;;;4.15;;
85734;SDS011;76179;42.316;22.856;2024-02-21T14:20:02;6.95;;;3.88;;
85734;SDS011;76179;42.316;22.856;2024-02-21T14:22:29;6.90;;;3.83;;
85734;SDS011;76179;42.316;22.856;2024-02-21T14:24:55;6.35;;;2.83;;
85734;SDS011;76179;42.316;22.856;2024-02-21T14:27:21;7.00;;;3.65;;
85734;SDS011;76179;42.316;22.856;2024-02-21T14:29:47;5.82;;;2.80;;
85734;SDS011;76179;42.316;22.856;2024-02-21T14:32:12;6.32;;;2.88;;
85734;SDS011;76179;42.316;22.856;2024-02-21T14:34:38;6.07;;;3.00;;